createdAt,value
2023-04-02T00:00:10.873Z,88.54
2023-04-02T00:03:13.362Z,88.54
2023-04-02T00:06:32.961Z,88.71
2023-04-02T00:09:37.445Z,88.86
2023-04-02T00:12:39.863Z,88.79
2023-04-02T00:15:46.160Z,89.23
2023-04-02T00:18:52.681Z,90.37
2023-04-02T00:21:57.466Z,91.10
2023-04-02T00:25:03.994Z,90.63
2023-04-02T00:28:06.447Z,90.79
2023-04-02T00:31:11.077Z,91.54
2023-04-02T00:34:24.164Z,91.83
2023-04-02T00:37:30.319Z,92.48
2023-04-02T00:40:32.491Z,90.82
2023-04-02T00:43:38.491Z,90.18
2023-04-02T00:46:48.577Z,89.85
2023-04-02T00:49:58.833Z,90.09
2023-04-02T00:53:09.092Z,91.19
2023-04-02T00:56:25.949Z,91.68
2023-04-02T00:59:35.954Z,91.23
2023-04-02T01:02:40.960Z,91.44
2023-04-02T01:05:45.532Z,92.15
2023-04-02T01:08:55.147Z,91.74
2023-04-02T01:12:03.402Z,91.28
2023-04-02T01:15:39.976Z,91.41
2023-04-02T01:19:02.511Z,92.73
2023-04-02T01:22:22.377Z,93.33
2023-04-02T01:25:41.034Z,93.69
2023-04-02T01:29:06.865Z,94.08
2023-04-02T01:32:15.144Z,94.20
2023-04-02T01:35:17.715Z,94.38
2023-04-02T01:38:38.246Z,94.00
2023-04-02T01:41:48.360Z,93.83
2023-04-02T01:44:59.725Z,94.49
2023-04-02T01:48:24.937Z,94.49
2023-04-02T01:51:31.888Z,95.09
2023-04-02T01:54:37.995Z,95.61
2023-04-02T01:57:47.773Z,95.73
2023-04-02T02:00:53.468Z,95.71
2023-04-02T02:03:55.808Z,95.38
2023-04-02T02:07:02.847Z,95.85
2023-04-02T02:10:05.889Z,96.03
2023-04-02T02:13:14.949Z,96.44
2023-04-02T02:16:18.600Z,96.69
2023-04-02T02:19:29.043Z,96.40
2023-04-02T02:22:35.726Z,97.04
2023-04-02T02:25:38.187Z,97.19
2023-04-02T02:28:42.835Z,97.17
2023-04-02T02:31:48.602Z,97.17
2023-04-02T02:35:00.528Z,97.04
2023-04-02T02:38:27.179Z,97.22
2023-04-02T02:41:31.900Z,97.00
2023-04-02T02:44:37.026Z,97.33
2023-04-02T02:47:42.417Z,97.30
2023-04-02T02:50:45.389Z,97.32
2023-04-02T02:53:53.726Z,97.12
2023-04-02T02:57:03.333Z,97.17
2023-04-02T03:00:08.130Z,97.42
2023-04-02T03:03:34.495Z,97.60
2023-04-02T03:06:36.865Z,97.70
2023-04-02T03:10:04.434Z,97.76
2023-04-02T03:13:32.897Z,97.97
2023-04-02T03:16:41.209Z,98.09
2023-04-02T03:19:56.406Z,98.25
2023-04-02T03:23:13.417Z,97.52
2023-04-02T03:26:23.281Z,97.35
2023-04-02T03:29:33.443Z,96.94
2023-04-02T03:32:39.454Z,96.74
2023-04-02T03:35:48.225Z,97.15
2023-04-02T03:39:24.774Z,97.69
2023-04-02T03:42:30.857Z,97.94
2023-04-02T03:45:39.852Z,97.93
2023-04-02T03:48:47.174Z,98.32
2023-04-02T03:51:57.716Z,98.35
2023-04-02T03:55:02.803Z,98.12
2023-04-02T03:58:23.315Z,98.05
2023-04-02T04:01:52.323Z,98.12
2023-04-02T04:04:56.659Z,98.26
2023-04-02T04:08:06.722Z,98.04
2023-04-02T04:11:20.174Z,98.02
2023-04-02T04:14:32.405Z,98.02
2023-04-02T04:17:41.139Z,97.98
2023-04-02T04:20:57.651Z,98.34
2023-04-02T04:24:15.033Z,98.28
2023-04-02T04:27:42.982Z,98.41
2023-04-02T04:31:02.102Z,98.57
2023-04-02T04:34:11.763Z,98.81
2023-04-02T04:37:21.824Z,98.74
2023-04-02T04:40:28.406Z,99.23
2023-04-02T04:43:44.278Z,99.17
2023-04-02T04:47:11.108Z,99.15
2023-04-02T04:50:21.880Z,99.49
2023-04-02T04:53:26.488Z,99.21
2023-04-02T04:56:30.952Z,99.60
2023-04-02T04:59:44.559Z,99.64
2023-04-02T05:02:54.495Z,99.68
2023-04-02T05:06:06.475Z,99.53
2023-04-02T05:09:13.761Z,99.68
2023-04-02T05:12:26.920Z,99.31
2023-04-02T05:15:42.353Z,98.88
2023-04-02T05:18:51.389Z,98.62
2023-04-02T05:22:12.097Z,98.42
2023-04-02T05:25:23.755Z,98.29
2023-04-02T05:28:38.022Z,98.12
2023-04-02T05:31:48.993Z,97.90
2023-04-02T05:34:55.089Z,97.68
2023-04-02T05:37:58.214Z,97.41
2023-04-02T05:41:27.239Z,97.24
2023-04-02T05:44:38.582Z,97.33
2023-04-02T05:47:43.911Z,97.08
2023-04-02T05:50:51.333Z,96.97
2023-04-02T05:53:58.780Z,96.87
2023-04-02T05:57:08.019Z,96.95
2023-04-02T06:00:23.826Z,96.81
2023-04-02T06:03:28.610Z,96.46
2023-04-02T06:06:39.873Z,96.25
2023-04-02T06:10:05.143Z,96.09
2023-04-02T06:13:08.740Z,95.71
2023-04-02T06:16:15.288Z,95.22
2023-04-02T06:19:34.160Z,95.67
2023-04-02T06:22:43.568Z,94.11
2023-04-02T06:26:20.766Z,94.01
2023-04-02T06:29:40.219Z,94.56
2023-04-02T06:32:42.430Z,93.66
2023-04-02T06:35:47.189Z,93.17
2023-04-02T06:38:51.221Z,92.29
2023-04-02T06:42:24.971Z,91.54
2023-04-02T06:45:33.473Z,90.69
2023-04-02T06:48:38.140Z,91.05
2023-04-02T06:51:43.668Z,89.90
2023-04-02T06:54:47.464Z,89.99
2023-04-02T06:57:49.732Z,90.05
2023-04-02T07:00:52.401Z,90.34
2023-04-02T07:03:55.444Z,89.43
2023-04-02T07:06:57.663Z,89.43
2023-04-02T07:09:59.844Z,89.20
2023-04-02T07:13:02.688Z,89.07
2023-04-02T07:16:05.282Z,89.42
2023-04-02T07:19:20.661Z,88.77
2023-04-02T07:22:22.877Z,88.61
2023-04-02T07:25:26.923Z,88.26
2023-04-02T07:28:29.424Z,86.10
2023-04-02T07:31:31.737Z,86.56
2023-04-02T07:34:34.515Z,87.66
2023-04-02T07:37:38.701Z,86.59
2023-04-02T07:40:41.445Z,86.18
2023-04-02T07:43:44.819Z,85.76
2023-04-02T07:46:47.406Z,84.86
2023-04-02T07:49:49.560Z,83.03
2023-04-02T07:52:51.684Z,81.91
2023-04-02T07:55:54.221Z,81.24
2023-04-02T07:58:56.564Z,81.95
2023-04-02T08:01:59.128Z,80.41
2023-04-02T08:05:01.662Z,77.82
2023-04-02T08:08:03.791Z,78.06
2023-04-02T08:11:06.622Z,77.91
2023-04-02T08:14:09.665Z,73.71
2023-04-02T08:17:12.074Z,74.31
2023-04-02T08:20:22.636Z,70.04
2023-04-02T08:23:25.546Z,68.04
2023-04-02T08:26:27.922Z,71.57
2023-04-02T08:29:32.452Z,72.19
2023-04-02T08:32:34.610Z,67.87
2023-04-02T08:35:37.076Z,66.70
2023-04-02T08:38:39.367Z,69.52
2023-04-02T08:42:02.940Z,67.78
2023-04-02T08:45:23.515Z,66.75
2023-04-02T08:48:27.374Z,67.41
2023-04-02T08:51:34.644Z,67.25
2023-04-02T08:54:38.172Z,62.60
2023-04-02T08:57:42.858Z,64.03
2023-04-02T09:00:47.897Z,62.79
2023-04-02T09:03:52.391Z,63.76
2023-04-02T09:06:56.832Z,64.41
2023-04-02T09:09:59.584Z,64.01
2023-04-02T09:13:03.281Z,61.80
2023-04-02T09:16:12.357Z,62.83
2023-04-02T09:19:25.527Z,63.12
2023-04-02T09:22:38.569Z,63.21
2023-04-02T09:25:54.096Z,61.48
2023-04-02T09:29:12.632Z,60.87
2023-04-02T09:32:28.166Z,61.21
2023-04-02T09:35:32.937Z,60.09
2023-04-02T09:38:35.660Z,61.06
2023-04-02T09:41:38.719Z,58.41
2023-04-02T09:44:41.404Z,60.80
2023-04-02T09:47:43.568Z,58.70
2023-04-02T09:50:45.749Z,58.11
2023-04-02T09:53:49.606Z,57.86
2023-04-02T09:57:03.669Z,56.63
2023-04-02T10:03:33.130Z,57.54
2023-04-02T10:06:35.405Z,57.99
2023-04-02T10:09:39.029Z,57.08
2023-04-02T10:12:42.552Z,57.22
2023-04-02T10:15:47.375Z,56.29
2023-04-02T10:19:13.422Z,56.55
2023-04-02T10:22:18.215Z,55.58
2023-04-02T10:25:25.448Z,55.17
2023-04-02T10:28:43.308Z,53.26
2023-04-02T10:32:07.032Z,52.81
2023-04-02T10:35:38.353Z,52.86
2023-04-02T10:38:55.621Z,52.59
2023-04-02T10:42:21.602Z,54.80
2023-04-02T10:45:57.753Z,52.39
2023-04-02T10:49:21.519Z,54.13
2023-04-02T10:52:23.455Z,53.63
2023-04-02T10:55:33.959Z,52.58
2023-04-02T10:58:51.385Z,49.81
2023-04-02T11:01:56.819Z,45.71
2023-04-02T11:05:05.975Z,49.62
2023-04-02T11:08:26.266Z,49.49
2023-04-02T11:11:36.765Z,49.79
2023-04-02T11:14:41.177Z,50.39
2023-04-02T11:17:45.226Z,46.01
2023-04-02T11:20:50.566Z,46.10
2023-04-02T11:24:03.450Z,46.21
2023-04-02T11:27:11.544Z,43.08
2023-04-02T11:30:18.198Z,45.19
2023-04-02T11:33:39.171Z,44.73
2023-04-02T11:37:03.697Z,49.89
2023-04-02T11:40:12.302Z,48.53
2023-04-02T11:43:32.938Z,46.97
2023-04-02T11:46:40.641Z,43.93
2023-04-02T11:50:01.956Z,43.98
2023-04-02T11:53:14.973Z,46.94
2023-04-02T11:56:22.007Z,47.35
2023-04-02T11:59:33.754Z,45.77
2023-04-02T12:02:54.020Z,42.20
2023-04-02T12:06:04.383Z,44.25
2023-04-02T12:09:34.818Z,45.70
2023-04-02T12:12:40.581Z,46.55
2023-04-02T12:15:44.833Z,47.38
2023-04-02T12:18:54.020Z,44.46
2023-04-02T12:21:56.753Z,46.04
2023-04-02T12:25:05.573Z,47.41
2023-04-02T12:28:14.705Z,49.85
2023-04-02T12:31:21.766Z,50.70
2023-04-02T12:34:28.680Z,51.29
2023-04-02T12:37:31.874Z,51.68
2023-04-02T12:40:34.401Z,51.63
2023-04-02T12:43:38.200Z,50.55
2023-04-02T12:46:40.769Z,51.63
2023-04-02T12:49:44.947Z,51.75
2023-04-02T12:52:50.420Z,51.26
2023-04-02T12:55:54.369Z,52.10
2023-04-02T12:58:58.285Z,52.69
2023-04-02T13:02:02.908Z,52.16
2023-04-02T13:05:05.179Z,49.62
2023-04-02T13:08:16.650Z,46.60
2023-04-02T13:11:19.291Z,44.35
2023-04-02T13:14:24.631Z,40.67
2023-04-02T13:17:45.473Z,40.75
2023-04-02T13:21:00.146Z,43.22
2023-04-02T13:24:02.152Z,43.02
2023-04-02T13:27:04.830Z,44.42
2023-04-02T13:30:09.623Z,44.02
2023-04-02T13:33:12.233Z,43.70
2023-04-02T13:36:15.411Z,41.61
2023-04-02T13:39:18.162Z,41.73
2023-04-02T13:42:20.511Z,44.95
2023-04-02T13:45:27.536Z,45.32
2023-04-02T13:48:29.875Z,44.07
2023-04-02T13:51:37.870Z,44.89
2023-04-02T13:55:00.164Z,44.55
2023-04-02T13:58:03.759Z,46.06
2023-04-02T14:01:06.761Z,47.91
2023-04-02T14:04:12.912Z,49.32
2023-04-02T14:07:48.670Z,47.68
2023-04-02T14:10:54.650Z,45.72
2023-04-02T14:14:17.425Z,44.88
2023-04-02T14:17:52.114Z,44.91
2023-04-02T14:21:19.160Z,46.20
2023-04-02T14:25:06.430Z,48.70
2023-04-02T14:28:26.987Z,50.35
2023-04-02T14:31:47.231Z,51.16
2023-04-02T14:35:05.142Z,50.57
2023-04-02T14:38:32.354Z,48.04
2023-04-02T14:41:46.513Z,47.83
2023-04-02T14:45:04.668Z,46.38
2023-04-02T14:48:51.801Z,46.58
2023-04-02T14:52:06.499Z,46.62
2023-04-02T14:55:22.830Z,47.81
2023-04-02T14:59:23.759Z,47.57
2023-04-02T15:02:46.818Z,46.64
2023-04-02T15:05:57.675Z,46.29
2023-04-02T15:09:12.343Z,51.14
2023-04-02T15:12:36.311Z,52.49
2023-04-02T15:15:44.592Z,53.17
2023-04-02T15:18:51.269Z,54.13
2023-04-02T15:22:28.962Z,55.21
2023-04-02T15:25:43.383Z,54.88
2023-04-02T15:29:29.669Z,55.49
2023-04-02T15:32:35.455Z,55.91
2023-04-02T15:35:48.017Z,57.29
2023-04-02T15:39:12.519Z,59.20
2023-04-02T15:42:31.182Z,60.77
2023-04-02T15:45:49.357Z,62.61
2023-04-02T15:48:55.107Z,65.58
2023-04-02T15:52:13.062Z,68.53
2023-04-02T15:55:44.551Z,68.53
2023-04-02T15:59:24.975Z,68.76
2023-04-02T16:02:59.214Z,69.37
2023-04-02T16:06:26.911Z,68.88
2023-04-02T16:09:43.466Z,69.00
2023-04-02T16:12:46.947Z,69.13
2023-04-02T16:16:11.345Z,69.59
2023-04-02T16:19:40.111Z,69.25
2023-04-02T16:22:59.376Z,68.11
2023-04-02T16:26:11.179Z,67.99
2023-04-02T16:29:20.362Z,68.19
2023-04-02T16:32:46.601Z,68.11
2023-04-02T16:36:02.380Z,68.72
2023-04-02T16:39:44.711Z,68.90
2023-04-02T16:42:51.645Z,69.52
2023-04-02T16:46:12.504Z,70.27
2023-04-02T16:49:56.761Z,70.98
2023-04-02T16:53:54.554Z,70.71
2023-04-02T16:57:31.579Z,70.50
2023-04-02T17:00:54.689Z,69.96
2023-04-02T17:04:29.500Z,70.14
2023-04-02T17:07:44.770Z,70.10
2023-04-02T17:10:53.893Z,70.67
2023-04-02T17:14:07.057Z,70.89
2023-04-02T17:17:17.743Z,70.97
2023-04-02T17:20:25.804Z,71.40
2023-04-02T17:23:32.117Z,71.79
2023-04-02T17:26:39.111Z,72.41
2023-04-02T17:29:46.467Z,72.39
2023-04-02T17:32:49.765Z,73.15
2023-04-02T17:36:01.610Z,73.43
2023-04-02T17:39:17.473Z,73.56
2023-04-02T17:42:48.980Z,73.65
2023-04-02T17:45:56.111Z,74.14
2023-04-02T17:49:16.900Z,74.19
2023-04-02T17:52:48.505Z,74.65
2023-04-02T17:56:03.839Z,74.55
2023-04-02T17:59:28.471Z,75.00
2023-04-02T18:02:47.256Z,75.18
2023-04-02T18:06:07.350Z,75.79
2023-04-02T18:09:37.763Z,75.56
2023-04-02T18:13:09.449Z,76.51
2023-04-02T18:16:34.203Z,75.97
2023-04-02T18:20:04.973Z,76.11
2023-04-02T18:23:38.423Z,76.09
2023-04-02T18:26:48.532Z,75.61
2023-04-02T18:30:12.175Z,75.31
2023-04-02T18:33:25.680Z,75.44
2023-04-02T18:36:38.661Z,75.33
2023-04-02T18:40:05.936Z,75.14
2023-04-02T18:43:27.166Z,74.78
2023-04-02T18:47:11.656Z,73.49
2023-04-02T18:50:37.203Z,72.66
2023-04-02T18:53:42.706Z,71.56
2023-04-02T18:56:46.611Z,71.29
2023-04-02T18:59:58.567Z,71.04
2023-04-02T19:03:01.874Z,71.10
2023-04-02T19:06:25.029Z,70.47
2023-04-02T19:09:42.362Z,70.58
2023-04-02T19:12:46.617Z,70.60
2023-04-02T19:15:57.530Z,70.83
2023-04-02T19:19:27.338Z,70.52
2023-04-02T19:23:10.794Z,70.42
2023-04-02T19:26:23.606Z,70.08
2023-04-02T19:30:01.232Z,69.57
2023-04-02T19:33:42.418Z,67.57
2023-04-02T19:36:57.351Z,67.05
2023-04-02T19:40:25.259Z,67.51
2023-04-02T19:43:28.921Z,66.98
2023-04-02T19:46:32.230Z,66.72
2023-04-02T19:49:36.298Z,66.44
2023-04-02T19:52:39.997Z,66.89
2023-04-02T19:55:44.616Z,67.23
2023-04-02T19:58:47.462Z,67.34
2023-04-02T20:01:51.358Z,67.44
2023-04-02T20:04:54.198Z,67.52
2023-04-02T20:07:57.361Z,67.39
2023-04-02T20:11:00.726Z,67.25
2023-04-02T20:14:07.262Z,67.13
2023-04-02T20:17:10.308Z,67.11
2023-04-02T20:20:14.321Z,67.21
2023-04-02T20:23:25.216Z,67.73
2023-04-02T20:26:28.425Z,67.87
2023-04-02T20:29:32.803Z,67.94
2023-04-02T20:32:37.803Z,68.04
2023-04-02T20:35:41.417Z,67.99
2023-04-02T20:38:46.325Z,68.03
2023-04-02T20:41:49.103Z,68.31
2023-04-02T20:44:52.260Z,68.36
2023-04-02T20:47:55.689Z,68.64
2023-04-02T20:51:16.965Z,68.37
2023-04-02T20:54:38.118Z,68.19
2023-04-02T20:57:40.362Z,67.57
2023-04-02T21:00:42.563Z,67.42
2023-04-02T21:03:45.328Z,67.14
2023-04-02T21:06:47.657Z,66.66
2023-04-02T21:09:49.727Z,66.53
2023-04-02T21:12:51.899Z,66.39
2023-04-02T21:15:53.991Z,66.72
2023-04-02T21:19:01.155Z,66.57
2023-04-02T21:22:04.398Z,66.65
2023-04-02T21:25:06.795Z,66.64
2023-04-02T21:28:09.347Z,66.23
2023-04-02T21:31:17.238Z,66.27
2023-04-02T21:34:19.523Z,66.21
2023-04-02T21:37:22.952Z,66.39
2023-04-02T21:40:25.646Z,66.55
2023-04-02T21:43:27.746Z,66.60
2023-04-02T21:46:31.930Z,66.83
2023-04-02T21:49:35.340Z,66.85
2023-04-02T21:52:37.545Z,67.08
2023-04-02T21:55:39.713Z,66.52
2023-04-02T21:58:43.498Z,66.63
2023-04-02T22:01:50.776Z,66.34
2023-04-02T22:04:52.940Z,65.98
2023-04-02T22:07:55.031Z,65.61
2023-04-02T22:10:57.252Z,65.37
2023-04-02T22:14:00.304Z,65.01
2023-04-02T22:17:03.544Z,65.16
2023-04-02T22:20:06.905Z,65.11
2023-04-02T22:23:10.437Z,65.04
2023-04-02T22:26:14.314Z,65.03
2023-04-02T22:29:17.279Z,65.34
2023-04-02T22:32:19.413Z,65.51
2023-04-02T22:35:21.558Z,65.75
2023-04-02T22:38:23.548Z,66.15
2023-04-02T22:41:28.376Z,66.09
2023-04-02T22:44:30.425Z,66.46
2023-04-02T22:47:32.586Z,66.72
2023-04-02T22:50:35.038Z,66.82
2023-04-02T22:53:38.299Z,66.90
2023-04-02T22:56:40.487Z,66.98
2023-04-02T22:59:42.570Z,67.28
2023-04-02T23:02:45.142Z,67.35
2023-04-02T23:06:01.653Z,67.35
2023-04-02T23:09:04.314Z,67.46
2023-04-02T23:12:06.547Z,67.69
2023-04-02T23:15:10.048Z,67.66
2023-04-02T23:18:12.150Z,67.13
2023-04-02T23:21:15.254Z,66.31
2023-04-02T23:24:17.920Z,66.19
2023-04-02T23:27:20.742Z,66.20
2023-04-02T23:30:22.985Z,66.46
2023-04-02T23:33:25.127Z,66.79
2023-04-02T23:36:30.187Z,67.30
2023-04-02T23:39:32.251Z,67.19
2023-04-02T23:42:34.932Z,67.34
2023-04-02T23:45:37.035Z,67.77
2023-04-02T23:48:39.299Z,67.78
2023-04-02T23:51:41.685Z,67.67
2023-04-02T23:54:43.894Z,67.53
2023-04-02T23:57:46.373Z,67.39
